Time;durP1;ratioP1;P1;durP2;ratioP2;P2;SDS_P1;SDS_P2;PMS_P1;PMS_P2;Temp;Humidity;BMP_temperature;BMP_pressure;BME280_temperature;BME280_humidity;BME280_pressure;Samples;Min_cycle;Max_cycle;Signal;HPM_P1;HPM_P2
2023/05/26 00:01:03;;;;;;;10.63;4.88;;;14.30;71.80;;;;;;5066025;28;20045;-71
2023/05/26 00:03:30;;;;;;;8.48;4.82;;;14.30;72.00;;;;;;5061578;28;20452;-72
2023/05/26 00:05:56;;;;;;;11.60;4.88;;;14.30;72.00;;;;;;5062998;28;20048;-64
2023/05/26 00:08:23;;;;;;;10.75;5.50;;;14.20;72.00;;;;;;5060146;28;20071;-64
2023/05/26 00:10:51;;;;;;;10.82;5.28;;;14.20;72.20;;;;;;5060716;28;20043;-63
2023/05/26 00:13:17;;;;;;;7.00;4.97;;;14.20;72.20;;;;;;5057289;28;20041;-63
2023/05/26 00:15:46;;;;;;;11.93;5.38;;;14.20;72.10;;;;;;5056417;28;20048;-73
2023/05/26 00:18:13;;;;;;;9.65;5.47;;;14.20;71.70;;;;;;5062780;28;20055;-72
2023/05/26 00:20:40;;;;;;;10.95;5.05;;;14.20;71.70;;;;;;5066360;28;20056;-70
2023/05/26 00:23:07;;;;;;;8.73;4.60;;;14.20;71.80;;;;;;5063735;28;20060;-70
2023/05/26 00:25:34;;;;;;;10.32;5.50;;;14.20;71.70;;;;;;5067073;28;20048;-71
2023/05/26 00:28:00;;;;;;;8.35;4.97;;;14.20;71.80;;;;;;5063585;28;21182;-73
2023/05/26 00:30:28;;;;;;;8.38;4.78;;;14.10;72.10;;;;;;5045310;28;20063;-63
2023/05/26 00:32:57;;;;;;;10.45;5.65;;;14.10;72.00;;;;;;5056471;28;20053;-64
2023/05/26 00:35:24;;;;;;;9.65;5.45;;;14.00;72.10;;;;;;5064902;28;20056;-70
2023/05/26 00:37:51;;;;;;;9.05;4.75;;;14.00;72.10;;;;;;5066632;28;20048;-69
2023/05/26 00:40:18;;;;;;;9.30;5.25;;;14.00;72.20;;;;;;5046544;28;20056;-68
2023/05/26 00:42:45;;;;;;;7.97;4.93;;;14.00;72.10;;;;;;5037619;28;20055;-69
2023/05/26 00:45:12;;;;;;;9.95;5.10;;;14.00;71.90;;;;;;5062506;28;20115;-69
2023/05/26 00:47:39;;;;;;;10.70;5.50;;;14.00;71.90;;;;;;5044732;28;20060;-67
2023/05/26 00:50:12;;;;;;;8.82;5.05;;;13.90;72.40;;;;;;5062994;28;20044;-69
2023/05/26 00:52:40;;;;;;;8.75;5.00;;;13.80;72.70;;;;;;5060037;28;20057;-69
2023/05/26 00:55:09;;;;;;;9.30;4.50;;;13.70;72.70;;;;;;5058854;28;20123;-68
2023/05/26 00:57:38;;;;;;;8.10;4.85;;;13.70;72.90;;;;;;5063986;28;21247;-68
2023/05/26 01:00:08;;;;;;;8.60;4.65;;;13.70;73.30;;;;;;5064761;28;20060;-69
2023/05/26 01:02:37;;;;;;;9.40;4.97;;;13.60;73.40;;;;;;5062508;28;20049;-69
2023/05/26 01:05:06;;;;;;;10.23;5.40;;;13.60;73.40;;;;;;5066225;28;20055;-70
2023/05/26 01:07:35;;;;;;;8.60;5.28;;;13.60;73.50;;;;;;5063558;28;20399;-63
2023/05/26 01:10:02;;;;;;;8.18;4.95;;;13.60;73.30;;;;;;5045407;28;20064;-63
2023/05/26 01:12:36;;;;;;;8.30;4.78;;;13.70;73.30;;;;;;5066350;28;20048;-72
2023/05/26 01:15:07;;;;;;;11.63;4.72;;;13.60;73.60;;;;;;5041763;28;20100;-71
2023/05/26 01:17:40;;;;;;;10.30;4.78;;;13.50;73.70;;;;;;5034070;28;20164;-69
2023/05/26 01:20:17;;;;;;;8.18;4.45;;;13.60;73.50;;;;;;5048155;28;20062;-70
2023/05/26 01:23:13;;;;;;;9.80;4.78;;;13.50;73.60;;;;;;5063159;28;20507;-71
2023/05/26 01:25:49;;;;;;;10.90;5.20;;;13.50;73.80;;;;;;5061533;28;20585;-71
2023/05/26 01:28:20;;;;;;;8.55;5.03;;;13.40;73.80;;;;;;5064748;28;20059;-72
2023/05/26 01:30:49;;;;;;;9.10;4.82;;;13.50;73.70;;;;;;5066017;28;20048;-70
2023/05/26 01:33:16;;;;;;;10.98;5.32;;;13.40;74.00;;;;;;5060479;28;20106;-70
2023/05/26 01:35:44;;;;;;;8.30;5.05;;;13.30;74.30;;;;;;5066745;28;20049;-71
2023/05/26 01:38:12;;;;;;;8.25;4.68;;;13.20;74.60;;;;;;5068650;28;20464;-71
2023/05/26 01:40:40;;;;;;;9.15;4.40;;;13.20;74.70;;;;;;5047085;28;20061;-70
2023/05/26 01:43:14;;;;;;;8.85;4.68;;;13.20;74.90;;;;;;5070190;28;20091;-71
2023/05/26 01:45:49;;;;;;;9.27;4.60;;;13.10;74.80;;;;;;5046350;28;20598;-62
2023/05/26 01:48:18;;;;;;;10.40;4.97;;;13.10;75.00;;;;;;5048714;28;20045;-62
2023/05/26 01:50:50;;;;;;;9.45;5.22;;;13.10;74.70;;;;;;5059038;28;20060;-71
2023/05/26 01:53:21;;;;;;;9.48;5.13;;;13.10;74.90;;;;;;5050691;28;20064;-70
2023/05/26 01:55:52;;;;;;;9.50;4.82;;;13.10;75.00;;;;;;5067417;28;20048;-76
2023/05/26 01:58:21;;;;;;;9.10;5.18;;;13.00;75.00;;;;;;5059779;28;20037;-76
2023/05/26 02:00:49;;;;;;;8.75;5.45;;;13.00;75.10;;;;;;5043337;28;20052;-68
2023/05/26 02:03:17;;;;;;;10.80;5.30;;;13.00;75.10;;;;;;5043992;28;20439;-68
2023/05/26 02:05:44;;;;;;;8.95;5.25;;;12.90;75.30;;;;;;5046870;28;20049;-65
2023/05/26 02:08:11;;;;;;;11.50;5.82;;;12.90;75.50;;;;;;5068092;28;20048;-65
2023/05/26 02:10:38;;;;;;;8.95;5.50;;;13.00;75.00;;;;;;5063832;28;20040;-76
2023/05/26 02:13:06;;;;;;;10.02;5.32;;;13.00;75.00;;;;;;5057591;28;20048;-77
2023/05/26 02:15:33;;;;;;;9.63;5.50;;;12.90;75.30;;;;;;5044021;28;20056;-71
2023/05/26 02:18:03;;;;;;;10.02;5.88;;;12.80;75.30;;;;;;5067374;28;20056;-71
2023/05/26 02:20:30;;;;;;;8.80;4.85;;;12.80;75.20;;;;;;5043579;28;20060;-69
2023/05/26 02:22:57;;;;;;;10.35;5.38;;;12.90;75.10;;;;;;5047804;28;20093;-69
2023/05/26 02:25:24;;;;;;;8.93;5.40;;;12.80;74.90;;;;;;5063745;28;20049;-70
2023/05/26 02:27:53;;;;;;;9.98;5.43;;;12.80;74.90;;;;;;5060264;28;20041;-70
2023/05/26 02:30:20;;;;;;;10.15;5.82;;;12.70;75.00;;;;;;5064345;28;20090;-69
2023/05/26 02:32:47;;;;;;;11.70;5.22;;;12.70;75.10;;;;;;5060755;28;20049;-68
2023/05/26 02:35:15;;;;;;;9.02;4.95;;;12.70;75.20;;;;;;5065210;28;20060;-68
2023/05/26 02:37:42;;;;;;;11.15;5.38;;;12.70;75.00;;;;;;5061558;28;20051;-67
2023/05/26 02:40:10;;;;;;;8.40;5.50;;;12.70;75.00;;;;;;5043661;28;20049;-68
2023/05/26 02:42:37;;;;;;;10.27;5.43;;;12.60;75.10;;;;;;5063734;28;20052;-63
2023/05/26 02:45:05;;;;;;;9.88;5.60;;;12.60;75.10;;;;;;5047162;28;20127;-62
2023/05/26 02:47:34;;;;;;;9.80;5.07;;;12.60;75.10;;;;;;5066303;28;20065;-76
2023/05/26 02:50:00;;;;;;;8.48;5.28;;;12.60;75.20;;;;;;5038095;28;20040;-76
2023/05/26 02:52:29;;;;;;;10.02;5.40;;;12.50;75.50;;;;;;5067090;28;20046;-70
2023/05/26 02:54:56;;;;;;;8.52;5.13;;;12.50;75.50;;;;;;5064918;28;20039;-70
2023/05/26 02:57:23;;;;;;;9.30;5.95;;;12.30;75.80;;;;;;5042609;28;20056;-67
2023/05/26 02:59:50;;;;;;;9.98;5.32;;;12.30;75.80;;;;;;5060092;28;20044;-68
2023/05/26 03:02:16;;;;;;;8.55;4.97;;;12.40;75.60;;;;;;5063478;28;20116;-68
2023/05/26 03:04:43;;;;;;;10.25;5.30;;;12.30;75.60;;;;;;5061202;28;20043;-69
2023/05/26 03:07:10;;;;;;;11.90;6.00;;;12.40;75.60;;;;;;5063997;28;20565;-77
2023/05/26 03:09:39;;;;;;;8.88;5.32;;;12.20;75.70;;;;;;5052832;28;20056;-77
2023/05/26 03:12:07;;;;;;;9.50;5.32;;;12.30;75.60;;;;;;5036068;28;20093;-62
2023/05/26 03:14:35;;;;;;;9.73;5.40;;;12.20;75.70;;;;;;5048172;28;20079;-63
2023/05/26 03:17:02;;;;;;;9.65;5.28;;;12.20;75.80;;;;;;5039613;28;20103;-70
2023/05/26 03:19:28;;;;;;;9.20;5.18;;;12.20;75.80;;;;;;5044747;28;20500;-71
2023/05/26 03:21:57;;;;;;;8.45;5.65;;;12.20;75.70;;;;;;5046114;28;20048;-69
2023/05/26 03:24:24;;;;;;;11.65;5.43;;;12.20;75.70;;;;;;5062059;28;20055;-68
2023/05/26 03:26:52;;;;;;;12.05;5.88;;;12.20;75.70;;;;;;5046158;28;20048;-76
2023/05/26 03:29:19;;;;;;;8.70;5.38;;;12.10;75.90;;;;;;5041548;28;20044;-75
2023/05/26 03:31:49;;;;;;;10.30;5.95;;;12.10;75.90;;;;;;5066677;28;20047;-68
2023/05/26 03:34:17;;;;;;;9.90;5.30;;;12.00;75.90;;;;;;5059742;28;20102;-66
2023/05/26 03:36:45;;;;;;;10.50;5.40;;;12.10;75.80;;;;;;5056788;28;20049;-75
2023/05/26 03:39:21;;;;;;;9.75;5.32;;;12.10;75.70;;;;;;5042308;28;20052;-76
2023/05/26 03:41:49;;;;;;;8.27;5.25;;;12.10;75.80;;;;;;5059420;28;20135;-70
2023/05/26 03:44:21;;;;;;;8.88;5.10;;;12.10;75.90;;;;;;5054810;28;20044;-70
2023/05/26 03:46:48;;;;;;;8.13;5.28;;;12.10;75.80;;;;;;5056781;28;20158;-68
2023/05/26 03:49:16;;;;;;;9.52;5.22;;;12.10;75.90;;;;;;5047571;28;20044;-69
2023/05/26 03:51:43;;;;;;;8.35;4.65;;;12.00;76.20;;;;;;5043310;28;20044;-63
2023/05/26 03:54:10;;;;;;;8.85;4.78;;;11.90;76.30;;;;;;5042330;28;20040;-64
2023/05/26 03:56:37;;;;;;;7.85;5.43;;;11.90;76.20;;;;;;5038342;28;20044;-64
2023/05/26 03:59:06;;;;;;;9.77;5.50;;;12.00;76.10;;;;;;5032609;28;20112;-63
2023/05/26 04:01:36;;;;;;;10.10;5.50;;;11.90;76.20;;;;;;5036170;28;20136;-70
2023/05/26 04:04:03;;;;;;;10.05;5.55;;;11.90;76.30;;;;;;5029748;28;20150;-69
2023/05/26 04:06:32;;;;;;;13.65;5.85;;;11.90;76.20;;;;;;5026115;28;20194;-76
2023/05/26 04:09:03;;;;;;;10.68;5.95;;;11.90;76.50;;;;;;5059296;28;20045;-78
2023/05/26 04:11:30;;;;;;;9.70;5.70;;;11.90;76.30;;;;;;5052148;28;20110;-63
2023/05/26 04:13:57;;;;;;;10.25;5.50;;;11.90;76.40;;;;;;5060193;28;20052;-63
2023/05/26 04:16:24;;;;;;;8.82;5.15;;;11.90;76.40;;;;;;5062834;28;20068;-68
2023/05/26 04:18:52;;;;;;;10.43;5.60;;;11.80;76.60;;;;;;5049069;28;20103;-68
2023/05/26 04:21:19;;;;;;;11.02;5.55;;;11.90;76.40;;;;;;5035531;28;20061;-69
2023/05/26 04:23:47;;;;;;;12.07;5.97;;;11.90;76.70;;;;;;5035061;28;20074;-68
2023/05/26 04:26:16;;;;;;;10.02;5.80;;;11.80;77.00;;;;;;5037739;28;20147;-69
2023/05/26 04:29:11;;;;;;;10.98;6.00;;;11.80;77.00;;;;;;5042051;28;20049;-68
2023/05/26 04:31:42;;;;;;;10.70;5.50;;;11.80;77.10;;;;;;5031822;28;20052;-75
2023/05/26 04:34:29;;;;;;;9.77;5.00;;;11.90;77.00;;;;;;5042294;28;20057;-77
2023/05/26 04:37:15;;;;;;;8.18;5.68;;;11.90;77.20;;;;;;5058126;28;20170;-62
2023/05/26 04:39:42;;;;;;;9.77;5.50;;;11.90;77.20;;;;;;5063802;28;20098;-62
2023/05/26 04:42:09;;;;;;;9.73;5.38;;;12.00;76.90;;;;;;5053100;28;20525;-76
2023/05/26 04:44:38;;;;;;;10.55;5.60;;;11.90;77.10;;;;;;5058707;28;20044;-76
2023/05/26 04:47:08;;;;;;;10.20;5.30;;;11.90;77.50;;;;;;5052355;28;20044;-70
2023/05/26 04:49:37;;;;;;;13.13;5.10;;;11.90;77.60;;;;;;5054228;28;20095;-69
2023/05/26 04:52:04;;;;;;;9.13;5.20;;;11.90;77.50;;;;;;5065640;28;20097;-77
2023/05/26 04:54:34;;;;;;;8.68;5.20;;;11.90;77.50;;;;;;5047857;28;20056;-75
2023/05/26 04:57:01;;;;;;;9.63;4.88;;;12.00;77.50;;;;;;5036271;28;20110;-62
2023/05/26 04:59:48;;;;;;;9.48;4.85;;;12.00;77.50;;;;;;5046454;28;20057;-63
2023/05/26 05:02:17;;;;;;;9.10;4.80;;;12.00;77.60;;;;;;5047895;28;20041;-67
2023/05/26 05:05:04;;;;;;;12.05;5.10;;;12.20;77.30;;;;;;5048508;28;20044;-67
2023/05/26 05:07:30;;;;;;;12.50;5.22;;;12.20;77.10;;;;;;5048530;28;20048;-72
2023/05/26 05:09:58;;;;;;;8.65;4.65;;;12.30;76.90;;;;;;5048158;28;20072;-70
2023/05/26 05:12:25;;;;;;;9.60;5.20;;;12.30;77.10;;;;;;5048802;28;20044;-71
2023/05/26 05:14:52;;;;;;;8.07;4.90;;;12.20;77.40;;;;;;5056638;28;20515;-69
2023/05/26 05:17:20;;;;;;;6.93;4.63;;;12.20;77.40;;;;;;5037702;28;20124;-71
2023/05/26 05:19:47;;;;;;;9.25;5.07;;;12.30;77.20;;;;;;5047207;28;20056;-72
2023/05/26 05:22:16;;;;;;;7.03;5.22;;;12.30;77.20;;;;;;5067846;28;20072;-69
2023/05/26 05:24:43;;;;;;;10.73;5.40;;;12.40;77.30;;;;;;5043960;28;20587;-68
2023/05/26 05:27:11;;;;;;;8.98;5.32;;;12.40;77.20;;;;;;5054229;28;20049;-80
2023/05/26 05:29:38;;;;;;;8.18;4.82;;;12.50;77.10;;;;;;5043183;28;20048;-76
2023/05/26 05:32:06;;;;;;;8.63;5.70;;;12.50;76.70;;;;;;5029258;28;20041;-63
2023/05/26 05:34:41;;;;;;;8.45;5.30;;;12.60;77.00;;;;;;5044846;28;20040;-64
2023/05/26 05:37:08;;;;;;;7.18;4.95;;;12.60;77.20;;;;;;5041701;28;20051;-63
2023/05/26 05:39:37;;;;;;;9.68;5.50;;;12.60;77.20;;;;;;5043607;28;20063;-63
2023/05/26 05:42:06;;;;;;;12.90;4.97;;;12.60;77.40;;;;;;5042121;28;20064;-61
2023/05/26 05:44:33;;;;;;;11.00;5.38;;;12.60;77.10;;;;;;5045448;28;20049;-62
2023/05/26 05:47:00;;;;;;;9.52;5.47;;;12.70;76.70;;;;;;5047295;28;20117;-71
2023/05/26 05:49:37;;;;;;;11.10;5.47;;;12.70;76.80;;;;;;5043323;28;20056;-70
2023/05/26 05:52:04;;;;;;;10.48;5.15;;;12.70;76.90;;;;;;5036620;28;20878;-71
2023/05/26 05:54:32;;;;;;;10.80;5.30;;;12.70;77.00;;;;;;5036838;28;20114;-70
2023/05/26 05:57:02;;;;;;;9.68;5.28;;;12.80;77.20;;;;;;5057625;28;20048;-67
2023/05/26 05:59:29;;;;;;;11.23;5.65;;;12.80;77.20;;;;;;5040594;28;20061;-67
2023/05/26 06:01:56;;;;;;;13.05;6.05;;;12.80;77.40;;;;;;5058803;28;20059;-62
2023/05/26 06:04:23;;;;;;;11.60;5.63;;;12.80;77.70;;;;;;5028368;28;20127;-63
2023/05/26 06:06:51;;;;;;;9.48;5.63;;;12.80;77.10;;;;;;5041585;28;20130;-70
2023/05/26 06:09:18;;;;;;;9.68;5.10;;;12.90;77.50;;;;;;5058367;28;20040;-70
2023/05/26 06:11:44;;;;;;;11.43;5.00;;;12.90;76.60;;;;;;5060398;28;20488;-68
2023/05/26 06:14:13;;;;;;;11.57;5.78;;;13.00;77.40;;;;;;5059864;28;20056;-70
2023/05/26 06:16:40;;;;;;;9.15;5.30;;;13.10;76.80;;;;;;5065293;28;20045;-71
2023/05/26 06:19:07;;;;;;;10.00;5.03;;;13.10;77.20;;;;;;5046590;28;20073;-71
2023/05/26 06:21:34;;;;;;;11.65;5.75;;;13.20;77.10;;;;;;5048361;28;20045;-62
2023/05/26 06:24:03;;;;;;;11.32;6.43;;;13.20;76.90;;;;;;5048617;28;20044;-63
2023/05/26 06:26:30;;;;;;;12.52;5.30;;;13.30;76.30;;;;;;5041458;28;20046;-79
2023/05/26 06:28:57;;;;;;;10.52;5.25;;;13.40;77.00;;;;;;5065288;28;20407;-79
2023/05/26 06:31:25;;;;;;;11.75;5.32;;;13.60;76.60;;;;;;5036118;28;20056;-67
2023/05/26 06:34:18;;;;;;;8.27;5.00;;;13.70;76.10;;;;;;5057453;28;20063;-67
2023/05/26 06:36:45;;;;;;;11.15;5.63;;;13.80;75.40;;;;;;5045206;28;20060;-78
2023/05/26 06:39:13;;;;;;;13.00;5.78;;;13.90;75.60;;;;;;5042842;28;20492;-77
2023/05/26 06:41:40;;;;;;;11.50;5.32;;;14.10;75.50;;;;;;5036531;28;20067;-62
2023/05/26 06:44:07;;;;;;;10.35;5.70;;;14.20;75.10;;;;;;5045895;28;20094;-62
2023/05/26 06:46:35;;;;;;;11.43;6.35;;;14.40;74.30;;;;;;5055491;28;20531;-63
2023/05/26 06:49:04;;;;;;;12.32;6.18;;;14.60;74.30;;;;;;5045809;28;20580;-61
2023/05/26 06:51:41;;;;;;;13.35;6.05;;;14.70;74.00;;;;;;5053372;28;20049;-71
2023/05/26 06:54:09;;;;;;;12.02;5.15;;;14.90;73.50;;;;;;5040859;28;20816;-70
2023/05/26 06:56:37;;;;;;;13.55;5.97;;;15.10;73.20;;;;;;5039997;28;20051;-70
2023/05/26 06:59:04;;;;;;;15.20;5.68;;;15.20;72.90;;;;;;5064872;28;20048;-72
2023/05/26 07:01:31;;;;;;;11.38;5.18;;;15.40;72.40;;;;;;5038580;28;20421;-68
2023/05/26 07:04:00;;;;;;;13.02;5.40;;;15.50;72.30;;;;;;5039810;28;20056;-67
2023/05/26 07:06:27;;;;;;;10.80;4.45;;;15.60;71.80;;;;;;5049549;28;20044;-68
2023/05/26 07:08:55;;;;;;;12.10;5.38;;;15.70;71.60;;;;;;5051401;28;20099;-68
2023/05/26 07:11:28;;;;;;;11.02;4.97;;;15.90;70.80;;;;;;5045449;28;20056;-69
2023/05/26 07:14:01;;;;;;;12.13;5.28;;;16.10;70.70;;;;;;5046457;28;20060;-69
2023/05/26 07:16:28;;;;;;;11.27;5.10;;;16.20;69.90;;;;;;5048763;28;20052;-70
2023/05/26 07:18:55;;;;;;;12.07;4.95;;;16.40;69.70;;;;;;5045091;28;20518;-70
2023/05/26 07:21:25;;;;;;;13.00;4.60;;;16.50;69.60;;;;;;5040679;28;20145;-69
2023/05/26 07:23:52;;;;;;;11.50;3.88;;;16.60;69.50;;;;;;5042978;28;20119;-69
2023/05/26 07:26:20;;;;;;;12.98;5.03;;;16.70;69.20;;;;;;5042147;28;20055;-77
2023/05/26 07:28:48;;;;;;;12.27;4.07;;;17.00;68.90;;;;;;5046352;28;20101;-78
2023/05/26 07:31:15;;;;;;;11.38;4.43;;;17.00;68.80;;;;;;5053933;28;20106;-60
2023/05/26 07:33:43;;;;;;;9.38;4.68;;;17.10;68.20;;;;;;5064850;28;20136;-63
2023/05/26 07:36:10;;;;;;;11.82;4.93;;;17.20;68.10;;;;;;5057876;28;20045;-70
2023/05/26 07:38:39;;;;;;;12.48;4.32;;;17.40;67.80;;;;;;5032947;28;20520;-70
2023/05/26 07:41:06;;;;;;;9.77;4.43;;;17.50;67.30;;;;;;5062129;28;20032;-68
2023/05/26 07:43:33;;;;;;;12.85;4.32;;;17.70;66.70;;;;;;5059002;28;20053;-69
2023/05/26 07:46:00;;;;;;;11.55;4.18;;;17.80;66.20;;;;;;5046788;28;20051;-61
2023/05/26 07:48:27;;;;;;;11.32;4.65;;;17.80;66.30;;;;;;5061123;28;20045;-62
2023/05/26 07:50:54;;;;;;;11.32;4.75;;;17.90;65.60;;;;;;5065491;28;20135;-68
2023/05/26 07:53:21;;;;;;;8.85;4.15;;;18.10;65.20;;;;;;5064034;28;20036;-68
2023/05/26 07:55:49;;;;;;;8.55;4.05;;;18.20;64.40;;;;;;5046446;28;20057;-68
2023/05/26 07:58:18;;;;;;;10.48;4.32;;;18.30;64.50;;;;;;5065481;28;20055;-68
2023/05/26 08:00:45;;;;;;;12.70;4.18;;;18.40;64.50;;;;;;5062708;28;20048;-68
2023/05/26 08:03:12;;;;;;;12.15;4.32;;;18.50;64.50;;;;;;5060081;28;20052;-69
2023/05/26 08:05:38;;;;;;;11.05;4.18;;;18.60;64.50;;;;;;5056528;28;20053;-68
2023/05/26 08:08:05;;;;;;;10.93;4.45;;;18.70;64.00;;;;;;5057449;28;20045;-69
2023/05/26 08:10:33;;;;;;;8.98;4.75;;;18.80;64.00;;;;;;5061039;28;20049;-68
2023/05/26 08:13:01;;;;;;;11.98;4.28;;;18.90;63.40;;;;;;5051573;28;20051;-69
2023/05/26 08:15:28;;;;;;;12.02;4.28;;;18.90;63.00;;;;;;5060056;28;20052;-62
2023/05/26 08:17:55;;;;;;;10.35;3.88;;;19.00;63.00;;;;;;5064757;28;20276;-62
2023/05/26 08:20:21;;;;;;;12.43;4.97;;;19.20;62.20;;;;;;5061014;28;20045;-68
2023/05/26 08:22:48;;;;;;;10.40;4.35;;;19.30;61.80;;;;;;5062035;28;20145;-69
2023/05/26 08:25:15;;;;;;;11.75;4.10;;;19.40;61.70;;;;;;5054770;28;21973;-68
2023/05/26 08:27:42;;;;;;;8.57;3.83;;;19.50;61.60;;;;;;5052068;28;20405;-68
2023/05/26 08:30:11;;;;;;;9.48;3.72;;;19.50;61.30;;;;;;5059287;28;20075;-68
2023/05/26 08:32:38;;;;;;;10.43;4.03;;;19.60;61.00;;;;;;5056986;28;20056;-68
2023/05/26 08:35:05;;;;;;;10.73;3.67;;;19.70;60.30;;;;;;5060246;28;20508;-69
2023/05/26 08:37:32;;;;;;;10.82;4.15;;;19.80;60.00;;;;;;5063169;28;20065;-68
2023/05/26 08:39:59;;;;;;;9.55;4.28;;;20.00;60.00;;;;;;5063047;28;20048;-68
2023/05/26 08:42:31;;;;;;;11.90;4.20;;;20.10;59.80;;;;;;5046344;28;20056;-70
2023/05/26 08:44:58;;;;;;;8.77;4.15;;;20.10;59.00;;;;;;5062650;28;20523;-70
2023/05/26 08:47:27;;;;;;;9.82;4.13;;;20.30;58.50;;;;;;5055258;28;20048;-71
2023/05/26 08:49:58;;;;;;;8.27;3.95;;;20.40;58.10;;;;;;5060371;28;20057;-72
2023/05/26 08:52:25;;;;;;;9.43;3.85;;;20.40;58.60;;;;;;5061724;28;20408;-67
2023/05/26 08:54:52;;;;;;;10.93;3.92;;;20.50;58.20;;;;;;5062834;28;20496;-68
2023/05/26 08:57:20;;;;;;;11.98;4.35;;;20.60;58.00;;;;;;5068429;28;20045;-68
2023/05/26 08:59:48;;;;;;;12.02;4.05;;;20.70;57.80;;;;;;5063027;28;20049;-68
2023/05/26 09:02:17;;;;;;;10.05;4.13;;;20.80;57.70;;;;;;5062547;28;20627;-76
2023/05/26 09:04:46;;;;;;;13.02;4.78;;;20.70;56.70;;;;;;5040036;28;20048;-75
2023/05/26 09:07:13;;;;;;;10.30;4.03;;;20.90;55.80;;;;;;5058477;28;20045;-70
2023/05/26 09:09:41;;;;;;;10.25;4.15;;;21.00;55.90;;;;;;5046298;28;20052;-71
2023/05/26 09:12:11;;;;;;;9.20;4.30;;;21.10;55.20;;;;;;5068773;28;20053;-63
2023/05/26 09:14:38;;;;;;;;;;;21.10;55.10;;;;;;5065186;28;20078;-63
2023/05/26 09:17:06;;;;;;;11.10;3.87;;;21.20;55.60;;;;;;5024188;28;1122638;-71
2023/05/26 09:19:33;;;;;;;8.07;3.38;;;21.30;55.50;;;;;;5065825;28;20060;-72
2023/05/26 09:22:07;;;;;;;7.97;3.35;;;21.40;55.50;;;;;;5063108;28;20049;-70
2023/05/26 09:24:45;;;;;;;10.80;4.25;;;21.60;55.20;;;;;;5064873;28;20036;-69
2023/05/26 09:27:20;;;;;;;8.10;3.95;;;21.60;54.70;;;;;;5065538;28;20055;-69
2023/05/26 09:29:51;;;;;;;8.15;3.55;;;21.70;54.40;;;;;;5068204;28;20052;-69
2023/05/26 09:32:18;;;;;;;8.43;3.95;;;21.70;54.00;;;;;;5070987;28;20050;-68
2023/05/26 09:34:45;;;;;;;10.18;4.10;;;21.80;53.40;;;;;;5058765;28;20410;-68
2023/05/26 09:37:13;;;;;;;13.05;4.40;;;21.80;53.70;;;;;;5061420;28;20040;-69
2023/05/26 09:39:40;;;;;;;7.97;3.95;;;21.70;52.70;;;;;;5064761;28;20041;-68
2023/05/26 09:42:08;;;;;;;9.75;4.32;;;21.60;52.80;;;;;;5064954;28;20040;-68
2023/05/26 09:44:35;;;;;;;9.63;4.18;;;21.80;53.00;;;;;;5066455;28;20048;-68
2023/05/26 09:47:02;;;;;;;11.98;4.43;;;22.00;52.90;;;;;;5061392;28;20103;-77
2023/05/26 09:49:29;;;;;;;9.30;3.85;;;22.10;52.70;;;;;;5067316;28;20041;-76
2023/05/26 09:51:56;;;;;;;9.60;4.28;;;22.10;52.20;;;;;;5067503;28;20084;-70
2023/05/26 09:54:24;;;;;;;8.73;3.88;;;22.30;51.80;;;;;;5062671;28;20056;-70
2023/05/26 09:56:53;;;;;;;10.65;3.97;;;22.40;51.90;;;;;;5065043;28;20499;-64
2023/05/26 09:59:21;;;;;;;12.07;4.40;;;22.50;52.10;;;;;;5065461;28;20384;-64
2023/05/26 10:01:48;;;;;;;7.22;3.75;;;22.50;51.00;;;;;;5065520;28;20139;-69
2023/05/26 10:04:16;;;;;;;8.10;3.85;;;22.60;50.70;;;;;;5061903;28;20036;-69
2023/05/26 10:06:44;;;;;;;8.02;3.58;;;22.70;49.80;;;;;;5067080;28;20076;-63
2023/05/26 10:09:12;;;;;;;8.82;3.95;;;22.80;50.20;;;;;;5053803;28;20049;-64
2023/05/26 10:11:45;;;;;;;9.27;4.22;;;22.90;49.70;;;;;;5065407;28;20078;-69
2023/05/26 10:14:13;;;;;;;9.88;3.83;;;22.90;49.60;;;;;;5062644;28;20049;-70
2023/05/26 10:16:41;;;;;;;8.98;4.15;;;23.00;49.10;;;;;;5066362;28;20053;-77
2023/05/26 10:19:09;;;;;;;8.60;3.35;;;23.00;49.40;;;;;;5065188;28;20050;-77
2023/05/26 10:21:41;;;;;;;11.43;3.78;;;23.10;49.30;;;;;;5064091;28;20059;-72
2023/05/26 10:24:11;;;;;;;10.40;3.92;;;23.20;49.20;;;;;;5063342;28;20530;-71
2023/05/26 10:26:48;;;;;;;9.90;3.70;;;23.30;49.10;;;;;;5066108;28;20068;-71
2023/05/26 10:29:20;;;;;;;12.90;3.63;;;23.30;49.20;;;;;;5065015;28;20045;-71
2023/05/26 10:31:47;;;;;;;6.18;3.28;;;23.40;48.70;;;;;;5066575;28;20056;-71
2023/05/26 10:34:15;;;;;;;8.32;3.97;;;23.40;48.50;;;;;;5061379;28;20515;-72
2023/05/26 10:36:42;;;;;;;8.02;4.03;;;23.40;48.60;;;;;;5062555;28;20491;-62
2023/05/26 10:39:13;;;;;;;9.27;3.60;;;23.30;48.70;;;;;;5068133;28;20049;-64
2023/05/26 10:41:48;;;;;;;8.48;3.30;;;23.40;49.30;;;;;;5064964;28;20048;-72
2023/05/26 10:44:45;;;;;;;11.45;3.97;;;23.40;49.40;;;;;;5064826;28;20045;-73
2023/05/26 10:47:15;;;;;;;8.38;4.57;;;23.50;48.30;;;;;;5064181;28;20040;-63
2023/05/26 10:49:43;;;;;;;9.45;4.63;;;23.60;48.80;;;;;;5061820;28;20125;-63
2023/05/26 10:52:14;;;;;;;10.52;4.55;;;23.70;48.30;;;;;;5066030;28;20041;-71
2023/05/26 10:54:42;;;;;;;10.55;4.30;;;23.80;48.70;;;;;;5062794;28;20055;-72
2023/05/26 10:57:31;;;;;;;9.80;4.07;;;23.90;48.80;;;;;;5065163;28;20060;-70
2023/05/26 10:59:59;;;;;;;9.63;3.78;;;23.90;48.30;;;;;;5066341;28;20064;-70
2023/05/26 11:02:26;;;;;;;7.68;3.72;;;23.90;48.30;;;;;;5062612;28;20049;-63
2023/05/26 11:04:54;;;;;;;9.23;3.53;;;24.00;48.10;;;;;;5066279;28;20059;-62
2023/05/26 11:07:24;;;;;;;9.18;3.60;;;24.00;47.70;;;;;;5064180;28;20504;-69
2023/05/26 11:09:59;;;;;;;8.32;3.67;;;24.00;47.20;;;;;;5064060;28;20129;-70
2023/05/26 11:12:25;;;;;;;8.95;3.65;;;24.10;46.50;;;;;;5063708;28;20155;-64
2023/05/26 11:14:52;;;;;;;7.47;3.30;;;24.20;47.10;;;;;;5062586;28;20045;-64
2023/05/26 11:17:21;;;;;;;8.35;4.03;;;24.20;46.40;;;;;;5062149;28;20079;-63
2023/05/26 11:19:55;;;;;;;9.27;4.47;;;24.20;46.70;;;;;;5060190;28;20072;-62
2023/05/26 11:22:22;;;;;;;11.18;4.80;;;24.30;46.10;;;;;;5061824;28;20499;-71
2023/05/26 11:24:51;;;;;;;11.93;5.55;;;24.30;46.60;;;;;;5056568;28;20063;-72
2023/05/26 11:27:18;;;;;;;11.00;4.57;;;24.30;46.70;;;;;;5066124;28;20053;-68
2023/05/26 11:29:48;;;;;;;10.43;3.97;;;24.30;45.70;;;;;;5059912;28;20071;-68
2023/05/26 11:32:15;;;;;;;12.52;6.10;;;24.30;45.30;;;;;;5058465;28;20051;-70
2023/05/26 11:34:43;;;;;;;14.65;10.05;;;24.30;44.50;;;;;;5054618;28;20063;-69
2023/05/26 11:37:10;;;;;;;14.05;7.78;;;24.20;44.20;;;;;;5057458;28;20385;-71
2023/05/26 11:39:38;;;;;;;12.23;5.55;;;24.30;44.30;;;;;;5059017;28;20681;-69
2023/05/26 11:42:10;;;;;;;10.90;4.82;;;24.40;44.70;;;;;;5057821;28;20080;-69
2023/05/26 11:44:38;;;;;;;11.18;4.28;;;24.40;45.10;;;;;;5054719;28;20571;-69
2023/05/26 11:47:06;;;;;;;8.70;3.22;;;24.50;44.50;;;;;;5037507;28;20051;-69
2023/05/26 11:49:33;;;;;;;10.95;3.72;;;24.50;43.60;;;;;;5060269;28;20071;-69
2023/05/26 11:52:01;;;;;;;9.77;3.70;;;24.40;43.80;;;;;;5052773;28;20061;-60
2023/05/26 11:54:28;;;;;;;8.27;3.10;;;24.50;43.90;;;;;;5048014;28;20056;-62
2023/05/26 11:56:55;;;;;;;7.60;2.83;;;24.60;44.50;;;;;;5056185;28;20040;-70
2023/05/26 11:59:23;;;;;;;9.40;3.08;;;24.60;43.20;;;;;;5057233;28;20044;-69
2023/05/26 12:01:50;;;;;;;12.15;3.50;;;24.50;43.10;;;;;;5063973;28;20498;-63
2023/05/26 12:04:26;;;;;;;9.25;3.00;;;24.60;44.10;;;;;;5058142;28;20055;-61
2023/05/26 12:06:53;;;;;;;8.70;2.97;;;24.60;43.30;;;;;;5059044;28;20048;-63
2023/05/26 12:09:22;;;;;;;8.57;2.70;;;24.60;42.70;;;;;;5061460;28;20040;-63
2023/05/26 12:11:52;;;;;;;9.10;3.20;;;24.60;42.50;;;;;;5057429;28;20049;-64
2023/05/26 12:14:22;;;;;;;8.18;2.85;;;24.50;42.50;;;;;;5053950;28;21186;-62
2023/05/26 12:16:50;;;;;;;;;;;24.50;42.60;;;;;;5053080;28;20460;-72
2023/05/26 12:19:19;;;;;;;8.00;2.83;;;24.50;43.30;;;;;;5059070;28;19951;-71
2023/05/26 12:21:48;;;;;;;10.73;3.47;;;24.60;43.20;;;;;;5060157;28;20072;-73
2023/05/26 12:24:33;;;;;;;12.40;3.38;;;24.60;43.20;;;;;;5059328;28;20475;-73
2023/05/26 12:27:06;;;;;;;8.90;3.58;;;24.60;42.70;;;;;;5055747;28;20048;-73
2023/05/26 12:29:35;;;;;;;7.55;2.90;;;24.60;41.70;;;;;;5060271;28;20045;-74
2023/05/26 12:32:05;;;;;;;10.20;3.20;;;24.70;41.90;;;;;;5053754;28;20059;-68
2023/05/26 12:34:33;;;;;;;9.00;2.53;;;24.60;41.90;;;;;;5062049;28;20037;-68
2023/05/26 12:37:00;;;;;;;8.52;2.80;;;24.60;42.80;;;;;;5062272;28;20055;-67
2023/05/26 12:39:28;;;;;;;8.52;3.63;;;24.60;42.00;;;;;;5064410;28;20487;-68
2023/05/26 12:41:56;;;;;;;9.48;3.92;;;24.60;41.60;;;;;;5061393;28;20045;-62
2023/05/26 12:44:23;;;;;;;8.88;3.60;;;24.60;41.90;;;;;;5057519;28;20444;-62
2023/05/26 12:46:51;;;;;;;10.40;3.05;;;24.50;42.10;;;;;;5057829;28;20414;-63
2023/05/26 12:49:18;;;;;;;8.75;3.17;;;24.40;42.00;;;;;;5057204;28;20132;-64
2023/05/26 12:51:45;;;;;;;9.75;3.15;;;24.30;41.50;;;;;;5058932;28;20040;-72